sensor_id;sensor_type;location;lat;lon;timestamp;pressure;altitude;pressure_sealevel;temperature;humidity
79285;BME280;68734;50.452;11.636;2023-06-10T00:00:44;95446.22;;;12.20;75.26
79285;BME280;68734;50.452;11.636;2023-06-10T00:03:10;95454.34;;;12.14;75.58
79285;BME280;68734;50.452;11.636;2023-06-10T00:05:39;95449.47;;;12.11;75.55
79285;BME280;68734;50.452;11.636;2023-06-10T00:08:05;95439.75;;;12.05;75.88
79285;BME280;68734;50.452;11.636;2023-06-10T00:10:37;95454.91;;;12.11;75.51
79285;BME280;68734;50.452;11.636;2023-06-10T00:13:07;95451.09;;;12.12;75.64
79285;BME280;68734;50.452;11.636;2023-06-10T00:15:36;95458.16;;;12.13;75.96
79285;BME280;68734;50.452;11.636;2023-06-10T00:18:02;95447.84;;;12.10;75.43
79285;BME280;68734;50.452;11.636;2023-06-10T00:20:29;95448.13;;;12.14;76.28
79285;BME280;68734;50.452;11.636;2023-06-10T00:22:55;95445.69;;;12.12;75.83
79285;BME280;68734;50.452;11.636;2023-06-10T00:25:22;95433.50;;;12.25;75.18
79285;BME280;68734;50.452;11.636;2023-06-10T00:27:50;95445.41;;;12.29;75.18
79285;BME280;68734;50.452;11.636;2023-06-10T00:30:15;95448.91;;;12.35;75.19
79285;BME280;68734;50.452;11.636;2023-06-10T00:32:41;95446.97;;;12.51;74.38
79285;BME280;68734;50.452;11.636;2023-06-10T00:35:07;95449.88;;;12.70;73.77
79285;BME280;68734;50.452;11.636;2023-06-10T00:37:33;95453.66;;;12.79;73.22
79285;BME280;68734;50.452;11.636;2023-06-10T00:40:00;95462.88;;;12.78;73.18
79285;BME280;68734;50.452;11.636;2023-06-10T00:42:25;95461.22;;;12.82;73.20
79285;BME280;68734;50.452;11.636;2023-06-10T00:44:51;95457.34;;;13.04;71.95
79285;BME280;68734;50.452;11.636;2023-06-10T00:47:17;95451.28;;;13.22;71.25
79285;BME280;68734;50.452;11.636;2023-06-10T00:49:43;95465.34;;;13.34;71.17
79285;BME280;68734;50.452;11.636;2023-06-10T00:52:09;95462.47;;;13.65;69.85
79285;BME280;68734;50.452;11.636;2023-06-10T00:54:38;95454.78;;;13.77;68.98
79285;BME280;68734;50.452;11.636;2023-06-10T00:57:05;95457.41;;;13.88;68.63
79285;BME280;68734;50.452;11.636;2023-06-10T00:59:31;95463.88;;;13.92;68.44
79285;BME280;68734;50.452;11.636;2023-06-10T01:01:59;95466.06;;;13.90;68.59
79285;BME280;68734;50.452;11.636;2023-06-10T01:04:26;95446.88;;;13.81;68.76
79285;BME280;68734;50.452;11.636;2023-06-10T01:07:00;95448.72;;;13.86;68.52
79285;BME280;68734;50.452;11.636;2023-06-10T01:14:37;95454.25;;;13.75;69.37
79285;BME280;68734;50.452;11.636;2023-06-10T01:17:04;95459.69;;;13.75;69.22
79285;BME280;68734;50.452;11.636;2023-06-10T01:19:30;95461.84;;;13.73;69.56
79285;BME280;68734;50.452;11.636;2023-06-10T01:21:57;95448.81;;;13.75;69.58
79285;BME280;68734;50.452;11.636;2023-06-10T01:24:26;95459.16;;;13.73;69.81
79285;BME280;68734;50.452;11.636;2023-06-10T01:26:53;95466.78;;;13.66;70.04
79285;BME280;68734;50.452;11.636;2023-06-10T01:29:26;95457.03;;;13.65;70.20
79285;BME280;68734;50.452;11.636;2023-06-10T01:32:03;95463.81;;;13.63;70.36
79285;BME280;68734;50.452;11.636;2023-06-10T01:34:32;95466.31;;;13.59;70.78
79285;BME280;68734;50.452;11.636;2023-06-10T01:36:58;95462.56;;;13.50;71.42
79285;BME280;68734;50.452;11.636;2023-06-10T01:39:24;95460.69;;;13.45;71.46
79285;BME280;68734;50.452;11.636;2023-06-10T01:41:52;95464.75;;;13.43;71.90
79285;BME280;68734;50.452;11.636;2023-06-10T01:44:22;95458.81;;;13.41;72.00
79285;BME280;68734;50.452;11.636;2023-06-10T01:46:48;95462.28;;;13.51;71.73
79285;BME280;68734;50.452;11.636;2023-06-10T01:49:13;95468.84;;;13.45;71.89
79285;BME280;68734;50.452;11.636;2023-06-10T01:51:39;95460.38;;;13.47;71.82
79285;BME280;68734;50.452;11.636;2023-06-10T01:54:05;95455.44;;;13.59;71.56
79285;BME280;68734;50.452;11.636;2023-06-10T01:56:33;95459.25;;;13.58;71.85
79285;BME280;68734;50.452;11.636;2023-06-10T01:58:59;95459.84;;;13.50;72.00
79285;BME280;68734;50.452;11.636;2023-06-10T02:01:25;95460.38;;;13.47;72.24
79285;BME280;68734;50.452;11.636;2023-06-10T02:03:51;95449.53;;;13.47;72.12
79285;BME280;68734;50.452;11.636;2023-06-10T02:06:16;95432.50;;;13.41;72.06
79285;BME280;68734;50.452;11.636;2023-06-10T02:08:42;95455.59;;;13.33;72.87
79285;BME280;68734;50.452;11.636;2023-06-10T02:11:07;95450.22;;;13.23;72.66
79285;BME280;68734;50.452;11.636;2023-06-10T02:13:33;95456.22;;;13.10;73.56
79285;BME280;68734;50.452;11.636;2023-06-10T02:15:58;95453.53;;;13.05;73.40
79285;BME280;68734;50.452;11.636;2023-06-10T02:18:25;95457.94;;;12.95;74.49
79285;BME280;68734;50.452;11.636;2023-06-10T02:20:52;95458.47;;;12.92;74.34
79285;BME280;68734;50.452;11.636;2023-06-10T02:23:17;95464.47;;;12.89;74.58
79285;BME280;68734;50.452;11.636;2023-06-10T02:25:43;95465.56;;;12.83;74.32
79285;BME280;68734;50.452;11.636;2023-06-10T02:28:08;95451.50;;;12.81;75.03
79285;BME280;68734;50.452;11.636;2023-06-10T02:30:34;95465.56;;;12.83;75.00
79285;BME280;68734;50.452;11.636;2023-06-10T02:32:59;95461.22;;;12.87;75.09
79285;BME280;68734;50.452;11.636;2023-06-10T02:35:26;95455.84;;;12.77;74.93
79285;BME280;68734;50.452;11.636;2023-06-10T02:37:51;95463.44;;;12.65;75.44
79285;BME280;68734;50.452;11.636;2023-06-10T02:40:17;95466.78;;;12.41;76.17
79285;BME280;68734;50.452;11.636;2023-06-10T02:42:42;95459.72;;;12.25;76.57
79285;BME280;68734;50.452;11.636;2023-06-10T02:45:10;95461.91;;;12.12;77.53
79285;BME280;68734;50.452;11.636;2023-06-10T02:47:37;95480.88;;;12.02;77.18
79285;BME280;68734;50.452;11.636;2023-06-10T02:50:03;95484.41;;;11.92;77.77
79285;BME280;68734;50.452;11.636;2023-06-10T02:52:29;95484.13;;;12.14;77.95
79285;BME280;68734;50.452;11.636;2023-06-10T02:54:55;95476.50;;;12.47;76.75
79285;BME280;68734;50.452;11.636;2023-06-10T02:57:22;95482.38;;;12.80;75.28
79285;BME280;68734;50.452;11.636;2023-06-10T02:59:48;95489.16;;;12.77;75.55
79285;BME280;68734;50.452;11.636;2023-06-10T03:02:14;95485.66;;;12.77;75.46
79285;BME280;68734;50.452;11.636;2023-06-10T03:04:39;95485.63;;;12.87;75.01
79285;BME280;68734;50.452;11.636;2023-06-10T03:07:06;95475.31;;;12.89;74.53
79285;BME280;68734;50.452;11.636;2023-06-10T03:09:32;95487.47;;;12.92;74.46
79285;BME280;68734;50.452;11.636;2023-06-10T03:11:58;95482.88;;;12.92;74.05
79285;BME280;68734;50.452;11.636;2023-06-10T03:14:25;95477.47;;;12.87;73.96
79285;BME280;68734;50.452;11.636;2023-06-10T03:16:50;95474.78;;;12.82;74.37
79285;BME280;68734;50.452;11.636;2023-06-10T03:19:16;95490.72;;;12.89;74.02
79285;BME280;68734;50.452;11.636;2023-06-10T03:21:44;95489.66;;;12.85;74.52
79285;BME280;68734;50.452;11.636;2023-06-10T03:24:12;95487.22;;;12.93;74.31
79285;BME280;68734;50.452;11.636;2023-06-10T03:26:40;95497.19;;;13.08;74.15
79285;BME280;68734;50.452;11.636;2023-06-10T03:29:07;95489.50;;;13.26;73.42
79285;BME280;68734;50.452;11.636;2023-06-10T03:31:36;95483.78;;;13.38;72.79
79285;BME280;68734;50.452;11.636;2023-06-10T03:34:01;95486.38;;;13.58;71.72
79285;BME280;68734;50.452;11.636;2023-06-10T03:36:27;95488.00;;;13.59;71.47
79285;BME280;68734;50.452;11.636;2023-06-10T03:38:55;95490.31;;;13.81;70.85
79285;BME280;68734;50.452;11.636;2023-06-10T03:41:25;95492.69;;;13.88;70.65
79285;BME280;68734;50.452;11.636;2023-06-10T03:43:53;95494.78;;;14.01;70.47
79285;BME280;68734;50.452;11.636;2023-06-10T03:46:21;95497.16;;;14.37;68.87
79285;BME280;68734;50.452;11.636;2023-06-10T03:48:46;95508.38;;;14.89;67.08
79285;BME280;68734;50.452;11.636;2023-06-10T03:51:14;95509.78;;;15.29;65.47
79285;BME280;68734;50.452;11.636;2023-06-10T03:53:40;95514.34;;;15.58;64.59
79285;BME280;68734;50.452;11.636;2023-06-10T03:56:08;95509.38;;;15.84;64.16
79285;BME280;68734;50.452;11.636;2023-06-10T03:58:33;95521.72;;;16.14;62.10
79285;BME280;68734;50.452;11.636;2023-06-10T04:00:58;95515.25;;;16.10;62.24
79285;BME280;68734;50.452;11.636;2023-06-10T04:03:24;95521.22;;;16.45;61.44
79285;BME280;68734;50.452;11.636;2023-06-10T04:05:49;95523.91;;;16.64;60.33
79285;BME280;68734;50.452;11.636;2023-06-10T04:08:15;95531.53;;;16.48;61.69
79285;BME280;68734;50.452;11.636;2023-06-10T04:10:41;95526.66;;;16.45;61.37
79285;BME280;68734;50.452;11.636;2023-06-10T04:13:06;95533.72;;;16.79;60.43
79285;BME280;68734;50.452;11.636;2023-06-10T04:15:32;95534.38;;;17.31;58.54
79285;BME280;68734;50.452;11.636;2023-06-10T04:17:58;95531.34;;;16.59;60.83
79285;BME280;68734;50.452;11.636;2023-06-10T04:20:26;95532.84;;;16.84;59.96
79285;BME280;68734;50.452;11.636;2023-06-10T04:22:53;95530.94;;;16.00;62.78
79285;BME280;68734;50.452;11.636;2023-06-10T04:25:19;95530.94;;;16.65;61.69
79285;BME280;68734;50.452;11.636;2023-06-10T04:27:46;95539.97;;;17.26;59.51
79285;BME280;68734;50.452;11.636;2023-06-10T04:30:12;95535.50;;;17.30;59.08
79285;BME280;68734;50.452;11.636;2023-06-10T04:32:38;95536.50;;;17.62;58.36
79285;BME280;68734;50.452;11.636;2023-06-10T04:35:04;95528.22;;;17.40;59.12
79285;BME280;68734;50.452;11.636;2023-06-10T04:37:30;95527.53;;;17.20;59.75
79285;BME280;68734;50.452;11.636;2023-06-10T04:39:55;95531.47;;;17.14;59.47
79285;BME280;68734;50.452;11.636;2023-06-10T04:42:22;95532.06;;;17.39;59.41
79285;BME280;68734;50.452;11.636;2023-06-10T04:44:48;95535.47;;;18.22;56.87
79285;BME280;68734;50.452;11.636;2023-06-10T04:47:15;95540.75;;;17.68;58.30
79285;BME280;68734;50.452;11.636;2023-06-10T04:49:42;95536.75;;;16.45;62.27
79285;BME280;68734;50.452;11.636;2023-06-10T04:52:07;95532.63;;;15.77;64.86
79285;BME280;68734;50.452;11.636;2023-06-10T04:54:33;95532.69;;;15.04;67.39
79285;BME280;68734;50.452;11.636;2023-06-10T04:56:58;95537.06;;;14.76;68.95
79285;BME280;68734;50.452;11.636;2023-06-10T04:59:26;95532.56;;;14.90;68.68
79285;BME280;68734;50.452;11.636;2023-06-10T05:01:54;95534.72;;;14.30;70.97
79285;BME280;68734;50.452;11.636;2023-06-10T05:04:24;95529.88;;;14.85;69.15
79285;BME280;68734;50.452;11.636;2023-06-10T05:06:50;95533.53;;;15.67;66.42
79285;BME280;68734;50.452;11.636;2023-06-10T05:09:17;95529.31;;;16.50;63.40
79285;BME280;68734;50.452;11.636;2023-06-10T05:11:43;95534.84;;;16.45;63.68
79285;BME280;68734;50.452;11.636;2023-06-10T05:14:10;95544.13;;;16.44;63.79
79285;BME280;68734;50.452;11.636;2023-06-10T05:16:35;95542.50;;;16.76;63.06
79285;BME280;68734;50.452;11.636;2023-06-10T05:19:04;95539.69;;;17.92;58.28
79285;BME280;68734;50.452;11.636;2023-06-10T05:21:29;95536.47;;;18.49;56.80
79285;BME280;68734;50.452;11.636;2023-06-10T05:23:55;95539.81;;;18.23;57.47
79285;BME280;68734;50.452;11.636;2023-06-10T05:26:21;95535.75;;;18.66;56.27
79285;BME280;68734;50.452;11.636;2023-06-10T05:28:46;95534.09;;;17.19;61.46
79285;BME280;68734;50.452;11.636;2023-06-10T05:31:14;95540.72;;;16.20;65.25
79285;BME280;68734;50.452;11.636;2023-06-10T05:33:43;95538.19;;;15.66;66.52
79285;BME280;68734;50.452;11.636;2023-06-10T05:36:08;95544.13;;;15.25;68.29
79285;BME280;68734;50.452;11.636;2023-06-10T05:38:34;95546.81;;;15.30;68.88
79285;BME280;68734;50.452;11.636;2023-06-10T05:40:59;95543.78;;;15.32;69.52
79285;BME280;68734;50.452;11.636;2023-06-10T05:43:24;95550.44;;;15.21;69.61
79285;BME280;68734;50.452;11.636;2023-06-10T05:45:50;95538.53;;;15.84;67.26
79285;BME280;68734;50.452;11.636;2023-06-10T05:48:15;95544.41;;;17.36;62.06
79285;BME280;68734;50.452;11.636;2023-06-10T05:50:44;95543.84;;;18.71;58.09
79285;BME280;68734;50.452;11.636;2023-06-10T05:53:14;95539.88;;;19.48;55.17
79285;BME280;68734;50.452;11.636;2023-06-10T05:55:42;95541.75;;;19.88;53.73
79285;BME280;68734;50.452;11.636;2023-06-10T05:58:08;95539.09;;;19.57;55.41
79285;BME280;68734;50.452;11.636;2023-06-10T06:00:38;95546.28;;;19.44;55.20
79285;BME280;68734;50.452;11.636;2023-06-10T06:03:06;95543.72;;;20.48;52.65
79285;BME280;68734;50.452;11.636;2023-06-10T06:05:32;95545.97;;;20.46;52.25
79285;BME280;68734;50.452;11.636;2023-06-10T06:08:07;95544.97;;;19.72;54.67
79285;BME280;68734;50.452;11.636;2023-06-10T06:10:33;95549.72;;;19.58;54.94
79285;BME280;68734;50.452;11.636;2023-06-10T06:12:58;95541.97;;;20.09;53.88
79285;BME280;68734;50.452;11.636;2023-06-10T06:15:24;95539.63;;;19.27;56.54
79285;BME280;68734;50.452;11.636;2023-06-10T06:17:49;95542.63;;;19.57;56.05
79285;BME280;68734;50.452;11.636;2023-06-10T06:20:20;95537.16;;;19.57;55.17
79285;BME280;68734;50.452;11.636;2023-06-10T06:22:46;95536.31;;;20.05;54.37
79285;BME280;68734;50.452;11.636;2023-06-10T06:25:11;95540.19;;;20.39;53.42
79285;BME280;68734;50.452;11.636;2023-06-10T06:27:39;95536.13;;;20.10;53.94
79285;BME280;68734;50.452;11.636;2023-06-10T06:30:05;95539.81;;;20.84;53.36
79285;BME280;68734;50.452;11.636;2023-06-10T06:32:31;95541.09;;;20.96;51.70
79285;BME280;68734;50.452;11.636;2023-06-10T06:34:56;95538.09;;;20.45;51.99
79285;BME280;68734;50.452;11.636;2023-06-10T06:37:23;95545.31;;;20.58;52.31
79285;BME280;68734;50.452;11.636;2023-06-10T06:39:50;95541.97;;;20.61;52.99
79285;BME280;68734;50.452;11.636;2023-06-10T06:42:16;95534.69;;;20.04;53.69
79285;BME280;68734;50.452;11.636;2023-06-10T06:44:42;95541.47;;;20.33;53.36
79285;BME280;68734;50.452;11.636;2023-06-10T06:47:07;95541.28;;;20.82;53.03
79285;BME280;68734;50.452;11.636;2023-06-10T06:49:35;95549.22;;;20.66;53.39
79285;BME280;68734;50.452;11.636;2023-06-10T06:52:01;95538.09;;;20.19;54.41
79285;BME280;68734;50.452;11.636;2023-06-10T06:54:29;95545.09;;;19.19;57.10
79285;BME280;68734;50.452;11.636;2023-06-10T06:56:54;95549.97;;;18.99;58.41
79285;BME280;68734;50.452;11.636;2023-06-10T06:59:20;95542.34;;;18.87;58.57
79285;BME280;68734;50.452;11.636;2023-06-10T07:01:46;95562.50;;;18.46;60.13
79285;BME280;68734;50.452;11.636;2023-06-10T07:04:11;95560.47;;;18.16;61.44
79285;BME280;68734;50.452;11.636;2023-06-10T07:06:37;95555.47;;;17.95;61.35
79285;BME280;68734;50.452;11.636;2023-06-10T07:09:04;95566.22;;;17.50;63.08
79285;BME280;68734;50.452;11.636;2023-06-10T07:11:32;95558.56;;;17.52;63.10
79285;BME280;68734;50.452;11.636;2023-06-10T07:13:57;95567.19;;;17.82;63.11
79285;BME280;68734;50.452;11.636;2023-06-10T07:16:28;95560.34;;;17.70;63.29
79285;BME280;68734;50.452;11.636;2023-06-10T07:18:56;95560.03;;;17.86;63.08
79285;BME280;68734;50.452;11.636;2023-06-10T07:21:21;95566.69;;;17.93;62.95
79285;BME280;68734;50.452;11.636;2023-06-10T07:23:48;95565.41;;;17.63;63.14
79285;BME280;68734;50.452;11.636;2023-06-10T07:26:14;95549.22;;;17.67;63.62
79285;BME280;68734;50.452;11.636;2023-06-10T07:28:42;95557.41;;;17.67;63.47
79285;BME280;68734;50.452;11.636;2023-06-10T07:31:08;95566.91;;;17.69;64.04
79285;BME280;68734;50.452;11.636;2023-06-10T07:33:34;95559.13;;;17.77;63.74
79285;BME280;68734;50.452;11.636;2023-06-10T07:36:01;95566.47;;;18.04;63.62
79285;BME280;68734;50.452;11.636;2023-06-10T07:38:27;95554.66;;;18.31;62.14
79285;BME280;68734;50.452;11.636;2023-06-10T07:40:52;95565.56;;;18.08;62.83
79285;BME280;68734;50.452;11.636;2023-06-10T07:43:18;95565.69;;;18.26;61.59
79285;BME280;68734;50.452;11.636;2023-06-10T07:45:45;95563.09;;;18.21;61.96
79285;BME280;68734;50.452;11.636;2023-06-10T07:48:10;95568.09;;;18.41;61.78
79285;BME280;68734;50.452;11.636;2023-06-10T07:50:36;95564.47;;;18.32;62.05
79285;BME280;68734;50.452;11.636;2023-06-10T07:53:01;95560.13;;;18.31;62.30
79285;BME280;68734;50.452;11.636;2023-06-10T07:55:27;95550.28;;;18.30;62.12
79285;BME280;68734;50.452;11.636;2023-06-10T07:57:53;95561.81;;;18.41;61.97
79285;BME280;68734;50.452;11.636;2023-06-10T08:00:19;95565.84;;;18.43;61.97
79285;BME280;68734;50.452;11.636;2023-06-10T08:02:45;95554.09;;;18.65;62.13
79285;BME280;68734;50.452;11.636;2023-06-10T08:05:10;95558.28;;;18.85;62.31
79285;BME280;68734;50.452;11.636;2023-06-10T08:07:36;95553.16;;;18.70;61.64
79285;BME280;68734;50.452;11.636;2023-06-10T08:10:02;95551.41;;;18.74;62.26
79285;BME280;68734;50.452;11.636;2023-06-10T08:12:29;95558.59;;;19.15;61.21
79285;BME280;68734;50.452;11.636;2023-06-10T08:14:54;95544.44;;;19.22;59.09
79285;BME280;68734;50.452;11.636;2023-06-10T08:17:20;95545.22;;;19.13;58.98
79285;BME280;68734;50.452;11.636;2023-06-10T08:19:45;95545.72;;;19.24;59.64
79285;BME280;68734;50.452;11.636;2023-06-10T08:22:11;95559.56;;;19.19;60.16
79285;BME280;68734;50.452;11.636;2023-06-10T08:24:36;95545.72;;;19.24;60.15
79285;BME280;68734;50.452;11.636;2023-06-10T08:27:02;95543.59;;;19.52;59.03
79285;BME280;68734;50.452;11.636;2023-06-10T08:29:27;95548.22;;;19.83;58.11
79285;BME280;68734;50.452;11.636;2023-06-10T08:31:55;95544.25;;;19.58;59.55
79285;BME280;68734;50.452;11.636;2023-06-10T08:34:20;95550.16;;;19.83;59.74
79285;BME280;68734;50.452;11.636;2023-06-10T08:36:48;95546.94;;;19.89;57.60
79285;BME280;68734;50.452;11.636;2023-06-10T08:39:18;95549.50;;;19.86;56.40
79285;BME280;68734;50.452;11.636;2023-06-10T08:41:57;95549.53;;;20.03;55.22
79285;BME280;68734;50.452;11.636;2023-06-10T08:44:30;95547.91;;;20.02;56.11
79285;BME280;68734;50.452;11.636;2023-06-10T08:46:59;95563.06;;;19.91;56.72
79285;BME280;68734;50.452;11.636;2023-06-10T08:49:26;95548.34;;;19.78;57.00
79285;BME280;68734;50.452;11.636;2023-06-10T08:51:58;95546.13;;;20.06;57.40
79285;BME280;68734;50.452;11.636;2023-06-10T08:54:35;95557.88;;;19.89;56.57
79285;BME280;68734;50.452;11.636;2023-06-10T08:57:05;95542.59;;;20.23;56.88
79285;BME280;68734;50.452;11.636;2023-06-10T08:59:37;95540.34;;;20.25;56.53
79285;BME280;68734;50.452;11.636;2023-06-10T09:02:04;95537.91;;;20.32;55.03
79285;BME280;68734;50.452;11.636;2023-06-10T09:04:30;95540.81;;;20.53;53.84
79285;BME280;68734;50.452;11.636;2023-06-10T09:06:58;95532.75;;;20.66;52.74
79285;BME280;68734;50.452;11.636;2023-06-10T09:09:25;95538.56;;;20.73;53.37
79285;BME280;68734;50.452;11.636;2023-06-10T09:11:55;95535.00;;;20.81;52.58
79285;BME280;68734;50.452;11.636;2023-06-10T09:14:21;95538.06;;;20.80;53.81
79285;BME280;68734;50.452;11.636;2023-06-10T09:16:46;95545.00;;;20.77;53.81
79285;BME280;68734;50.452;11.636;2023-06-10T09:19:14;95541.47;;;20.68;53.15
79285;BME280;68734;50.452;11.636;2023-06-10T09:21:41;95542.13;;;20.65;55.19
79285;BME280;68734;50.452;11.636;2023-06-10T09:24:06;95534.03;;;20.77;55.51
79285;BME280;68734;50.452;11.636;2023-06-10T09:26:32;95526.09;;;20.93;55.21
79285;BME280;68734;50.452;11.636;2023-06-10T09:29:06;95539.41;;;21.12;53.33
79285;BME280;68734;50.452;11.636;2023-06-10T09:31:37;95523.25;;;21.10;51.24
79285;BME280;68734;50.452;11.636;2023-06-10T09:34:13;95522.19;;;21.32;50.72
79285;BME280;68734;50.452;11.636;2023-06-10T09:36:39;95536.81;;;21.16;51.54
79285;BME280;68734;50.452;11.636;2023-06-10T09:39:13;95532.53;;;20.97;53.76
79285;BME280;68734;50.452;11.636;2023-06-10T09:41:40;95528.97;;;20.97;54.75
79285;BME280;68734;50.452;11.636;2023-06-10T09:44:14;95530.34;;;21.20;53.02
79285;BME280;68734;50.452;11.636;2023-06-10T09:46:41;95528.38;;;21.21;52.68
79285;BME280;68734;50.452;11.636;2023-06-10T09:49:07;95528.00;;;21.01;52.42
79285;BME280;68734;50.452;11.636;2023-06-10T09:51:35;95532.06;;;20.86;53.85
79285;BME280;68734;50.452;11.636;2023-06-10T09:54:02;95537.09;;;20.76;53.27
79285;BME280;68734;50.452;11.636;2023-06-10T09:56:36;95522.34;;;20.98;54.42
79285;BME280;68734;50.452;11.636;2023-06-10T09:59:04;95529.81;;;20.80;53.90
79285;BME280;68734;50.452;11.636;2023-06-10T10:01:31;95532.72;;;20.83;54.72
79285;BME280;68734;50.452;11.636;2023-06-10T10:03:58;95536.88;;;21.07;56.29
79285;BME280;68734;50.452;11.636;2023-06-10T10:06:24;95539.34;;;20.82;55.93
79285;BME280;68734;50.452;11.636;2023-06-10T10:08:50;95530.97;;;20.70;55.64
79285;BME280;68734;50.452;11.636;2023-06-10T10:11:18;95526.16;;;21.14;54.82
79285;BME280;68734;50.452;11.636;2023-06-10T10:13:47;95534.03;;;21.24;55.10
79285;BME280;68734;50.452;11.636;2023-06-10T10:16:19;95522.00;;;21.46;55.06
79285;BME280;68734;50.452;11.636;2023-06-10T10:18:55;95525.94;;;21.28;55.62
79285;BME280;68734;50.452;11.636;2023-06-10T10:21:27;95534.28;;;21.02;56.32
79285;BME280;68734;50.452;11.636;2023-06-10T10:26:26;95537.25;;;20.79;56.50
79285;BME280;68734;50.452;11.636;2023-06-10T10:31:42;95541.53;;;21.06;56.34
79285;BME280;68734;50.452;11.636;2023-06-10T10:34:14;95533.22;;;20.68;56.83
79285;BME280;68734;50.452;11.636;2023-06-10T10:36:46;95525.81;;;20.60;57.67
79285;BME280;68734;50.452;11.636;2023-06-10T10:39:13;95531.38;;;21.07;57.03
79285;BME280;68734;50.452;11.636;2023-06-10T10:41:39;95536.41;;;21.35;54.79
79285;BME280;68734;50.452;11.636;2023-06-10T10:44:06;95542.06;;;21.47;54.43
79285;BME280;68734;50.452;11.636;2023-06-10T10:46:48;95529.16;;;21.30;56.39
79285;BME280;68734;50.452;11.636;2023-06-10T10:49:20;95536.78;;;21.24;57.38
79285;BME280;68734;50.452;11.636;2023-06-10T10:52:04;95539.78;;;21.02;57.08
79285;BME280;68734;50.452;11.636;2023-06-10T10:54:34;95522.56;;;21.31;57.42
79285;BME280;68734;50.452;11.636;2023-06-10T11:02:31;95520.41;;;21.07;58.44
79285;BME280;68734;50.452;11.636;2023-06-10T11:04:57;95533.19;;;21.32;57.86
79285;BME280;68734;50.452;11.636;2023-06-10T11:07:25;95522.84;;;21.47;57.02
79285;BME280;68734;50.452;11.636;2023-06-10T11:15:11;95518.59;;;21.41;57.59
79285;BME280;68734;50.452;11.636;2023-06-10T11:17:36;95497.06;;;21.60;56.62
79285;BME280;68734;50.452;11.636;2023-06-10T11:20:02;95524.09;;;21.49;56.44
79285;BME280;68734;50.452;11.636;2023-06-10T11:22:28;95540.19;;;21.21;56.18
79285;BME280;68734;50.452;11.636;2023-06-10T11:24:53;95521.25;;;21.28;56.29
79285;BME280;68734;50.452;11.636;2023-06-10T11:27:37;95522.84;;;21.47;55.53
79285;BME280;68734;50.452;11.636;2023-06-10T11:32:30;95525.72;;;21.42;56.44
79285;BME280;68734;50.452;11.636;2023-06-10T11:34:57;95525.94;;;21.28;56.66
79285;BME280;68734;50.452;11.636;2023-06-10T11:37:22;95526.47;;;21.21;56.48
79285;BME280;68734;50.452;11.636;2023-06-10T11:39:52;95528.22;;;21.26;56.00
79285;BME280;68734;50.452;11.636;2023-06-10T11:42:21;95536.88;;;21.07;56.95
79285;BME280;68734;50.452;11.636;2023-06-10T11:44:49;95544.91;;;21.12;57.50
79285;BME280;68734;50.452;11.636;2023-06-10T11:47:17;95536.41;;;20.96;58.14
79285;BME280;68734;50.452;11.636;2023-06-10T11:49:51;95544.47;;;20.92;57.90
79285;BME280;68734;50.452;11.636;2023-06-10T11:52:28;95540.78;;;20.88;57.85
79285;BME280;68734;50.452;11.636;2023-06-10T11:54:55;95547.38;;;20.96;58.41
79285;BME280;68734;50.452;11.636;2023-06-10T11:57:20;95515.72;;;20.99;54.25
79285;BME280;68734;50.452;11.636;2023-06-10T11:59:46;95537.69;;;20.90;52.64
79285;BME280;68734;50.452;11.636;2023-06-10T12:02:15;95547.56;;;20.82;53.13
79285;BME280;68734;50.452;11.636;2023-06-10T12:04:41;95561.41;;;20.95;53.38
79285;BME280;68734;50.452;11.636;2023-06-10T12:07:09;95560.91;;;21.10;54.09
79285;BME280;68734;50.452;11.636;2023-06-10T12:09:41;95559.59;;;21.16;53.53
79285;BME280;68734;50.452;11.636;2023-06-10T12:12:07;95564.75;;;21.18;53.35
79285;BME280;68734;50.452;11.636;2023-06-10T12:14:58;95557.19;;;21.06;53.80
79285;BME280;68734;50.452;11.636;2023-06-10T12:19:58;95542.56;;;20.58;54.68
79285;BME280;68734;50.452;11.636;2023-06-10T12:22:26;95561.16;;;20.70;54.19
79285;BME280;68734;50.452;11.636;2023-06-10T12:25:02;95559.81;;;20.94;52.82
79285;BME280;68734;50.452;11.636;2023-06-10T12:27:31;95549.84;;;20.80;52.26
79285;BME280;68734;50.452;11.636;2023-06-10T12:30:00;95569.13;;;21.10;52.25
79285;BME280;68734;50.452;11.636;2023-06-10T12:32:37;95566.75;;;21.00;50.33
79285;BME280;68734;50.452;11.636;2023-06-10T12:35:03;95563.84;;;20.96;50.06
79285;BME280;68734;50.452;11.636;2023-06-10T12:37:32;95553.22;;;20.86;51.23
79285;BME280;68734;50.452;11.636;2023-06-10T12:40:02;95566.28;;;20.80;51.98
79285;BME280;68734;50.452;11.636;2023-06-10T12:42:32;95569.06;;;20.71;53.11
79285;BME280;68734;50.452;11.636;2023-06-10T12:45:02;95560.97;;;20.58;53.15
79285;BME280;68734;50.452;11.636;2023-06-10T12:47:36;95551.78;;;20.53;54.01
79285;BME280;68734;50.452;11.636;2023-06-10T12:50:03;95550.97;;;20.36;54.03
79285;BME280;68734;50.452;11.636;2023-06-10T12:52:31;95554.69;;;20.48;54.10
79285;BME280;68734;50.452;11.636;2023-06-10T12:54:58;95555.97;;;20.68;53.54
79285;BME280;68734;50.452;11.636;2023-06-10T12:57:24;95559.97;;;20.97;54.38
79285;BME280;68734;50.452;11.636;2023-06-10T12:59:50;95551.63;;;21.32;52.53
79285;BME280;68734;50.452;11.636;2023-06-10T13:02:18;95548.84;;;21.49;51.63
79285;BME280;68734;50.452;11.636;2023-06-10T13:04:45;95548.84;;;21.79;52.12
79285;BME280;68734;50.452;11.636;2023-06-10T13:07:11;95551.00;;;22.45;50.83
79285;BME280;68734;50.452;11.636;2023-06-10T13:09:39;95538.94;;;23.04;48.81
79285;BME280;68734;50.452;11.636;2023-06-10T13:12:05;95534.34;;;23.08;47.31
79285;BME280;68734;50.452;11.636;2023-06-10T13:14:30;95544.72;;;22.90;48.71
79285;BME280;68734;50.452;11.636;2023-06-10T13:16:56;95541.50;;;23.09;48.27